sensor_id;sensor_type;location;lat;lon;timestamp;P1;durP1;ratioP1;P2;durP2;ratioP2
78298;SDS011;67556;55.656;12.590;2023-04-01T00:01:33;3.40;;;2.75;;
78298;SDS011;67556;55.656;12.590;2023-04-01T00:04:00;3.10;;;2.55;;
78298;SDS011;67556;55.656;12.590;2023-04-01T00:06:27;4.68;;;3.45;;
78298;SDS011;67556;55.656;12.590;2023-04-01T00:08:54;3.90;;;2.63;;
78298;SDS011;67556;55.656;12.590;2023-04-01T00:11:20;6.95;;;3.20;;
78298;SDS011;67556;55.656;12.590;2023-04-01T00:13:47;3.95;;;2.90;;
78298;SDS011;67556;55.656;12.590;2023-04-01T00:16:15;3.58;;;2.75;;
78298;SDS011;67556;55.656;12.590;2023-04-01T00:18:42;4.55;;;2.92;;
78298;SDS011;67556;55.656;12.590;2023-04-01T00:21:08;3.38;;;3.00;;
78298;SDS011;67556;55.656;12.590;2023-04-01T00:23:34;3.75;;;3.15;;
78298;SDS011;67556;55.656;12.590;2023-04-01T00:26:01;4.10;;;3.22;;
78298;SDS011;67556;55.656;12.590;2023-04-01T00:28:28;3.83;;;3.10;;
78298;SDS011;67556;55.656;12.590;2023-04-01T00:30:55;4.35;;;3.08;;
78298;SDS011;67556;55.656;12.590;2023-04-01T00:33:23;4.00;;;3.35;;
78298;SDS011;67556;55.656;12.590;2023-04-01T00:35:49;4.57;;;3.15;;
78298;SDS011;67556;55.656;12.590;2023-04-01T00:38:16;3.95;;;2.80;;
78298;SDS011;67556;55.656;12.590;2023-04-01T00:40:44;3.83;;;3.42;;
78298;SDS011;67556;55.656;12.590;2023-04-01T00:43:12;4.15;;;3.60;;
78298;SDS011;67556;55.656;12.590;2023-04-01T00:45:40;5.57;;;3.22;;
78298;SDS011;67556;55.656;12.590;2023-04-01T00:48:09;4.57;;;3.40;;
78298;SDS011;67556;55.656;12.590;2023-04-01T00:50:38;4.38;;;3.08;;
78298;SDS011;67556;55.656;12.590;2023-04-01T00:53:07;4.03;;;3.28;;
78298;SDS011;67556;55.656;12.590;2023-04-01T00:55:35;4.30;;;3.55;;
78298;SDS011;67556;55.656;12.590;2023-04-01T00:58:07;4.78;;;3.42;;
78298;SDS011;67556;55.656;12.590;2023-04-01T01:00:38;4.82;;;4.00;;
78298;SDS011;67556;55.656;12.590;2023-04-01T01:03:04;5.53;;;4.75;;
78298;SDS011;67556;55.656;12.590;2023-04-01T01:05:35;5.70;;;4.65;;
78298;SDS011;67556;55.656;12.590;2023-04-01T01:08:14;5.03;;;4.40;;
78298;SDS011;67556;55.656;12.590;2023-04-01T01:10:48;3.72;;;3.33;;
78298;SDS011;67556;55.656;12.590;2023-04-01T01:13:16;4.40;;;3.30;;
78298;SDS011;67556;55.656;12.590;2023-04-01T01:15:45;4.95;;;3.58;;
78298;SDS011;67556;55.656;12.590;2023-04-01T01:18:16;4.40;;;3.67;;
78298;SDS011;67556;55.656;12.590;2023-04-01T01:20:59;5.82;;;4.20;;
78298;SDS011;67556;55.656;12.590;2023-04-01T01:24:13;4.40;;;3.60;;
78298;SDS011;67556;55.656;12.590;2023-04-01T01:26:53;4.22;;;3.45;;
78298;SDS011;67556;55.656;12.590;2023-04-01T01:29:32;5.18;;;3.83;;
78298;SDS011;67556;55.656;12.590;2023-04-01T01:32:11;4.90;;;3.35;;
78298;SDS011;67556;55.656;12.590;2023-04-01T01:34:47;4.22;;;3.60;;
78298;SDS011;67556;55.656;12.590;2023-04-01T01:37:23;4.47;;;3.17;;
78298;SDS011;67556;55.656;12.590;2023-04-01T01:39:54;4.78;;;3.30;;
78298;SDS011;67556;55.656;12.590;2023-04-01T01:42:24;4.10;;;3.30;;
78298;SDS011;67556;55.656;12.590;2023-04-01T01:44:54;4.45;;;3.65;;
78298;SDS011;67556;55.656;12.590;2023-04-01T01:47:24;5.45;;;4.07;;
78298;SDS011;67556;55.656;12.590;2023-04-01T01:49:52;5.05;;;4.45;;
78298;SDS011;67556;55.656;12.590;2023-04-01T01:52:22;4.82;;;3.85;;
78298;SDS011;67556;55.656;12.590;2023-04-01T01:54:49;5.00;;;4.07;;
78298;SDS011;67556;55.656;12.590;2023-04-01T01:57:16;4.25;;;3.47;;
78298;SDS011;67556;55.656;12.590;2023-04-01T01:59:45;4.93;;;4.00;;
78298;SDS011;67556;55.656;12.590;2023-04-01T02:02:14;4.70;;;3.72;;
78298;SDS011;67556;55.656;12.590;2023-04-01T02:04:42;4.65;;;3.63;;
78298;SDS011;67556;55.656;12.590;2023-04-01T02:07:13;4.68;;;3.50;;
78298;SDS011;67556;55.656;12.590;2023-04-01T02:09:44;4.90;;;3.97;;
78298;SDS011;67556;55.656;12.590;2023-04-01T02:12:12;6.43;;;3.85;;
78298;SDS011;67556;55.656;12.590;2023-04-01T02:14:43;4.97;;;3.70;;
78298;SDS011;67556;55.656;12.590;2023-04-01T02:17:14;4.35;;;3.85;;
78298;SDS011;67556;55.656;12.590;2023-04-01T02:19:43;5.28;;;4.38;;
78298;SDS011;67556;55.656;12.590;2023-04-01T02:22:14;5.20;;;3.97;;
78298;SDS011;67556;55.656;12.590;2023-04-01T02:24:46;5.22;;;4.47;;
78298;SDS011;67556;55.656;12.590;2023-04-01T02:27:14;5.05;;;3.85;;
78298;SDS011;67556;55.656;12.590;2023-04-01T02:29:41;6.32;;;4.28;;
78298;SDS011;67556;55.656;12.590;2023-04-01T02:32:07;7.10;;;4.00;;
78298;SDS011;67556;55.656;12.590;2023-04-01T02:34:35;4.35;;;3.28;;
78298;SDS011;67556;55.656;12.590;2023-04-01T02:37:02;5.55;;;4.03;;
78298;SDS011;67556;55.656;12.590;2023-04-01T02:39:30;4.78;;;3.92;;
78298;SDS011;67556;55.656;12.590;2023-04-01T02:41:58;5.65;;;4.05;;
78298;SDS011;67556;55.656;12.590;2023-04-01T02:44:24;5.88;;;4.10;;
78298;SDS011;67556;55.656;12.590;2023-04-01T02:46:51;4.28;;;3.88;;
78298;SDS011;67556;55.656;12.590;2023-04-01T02:49:18;5.40;;;4.10;;
78298;SDS011;67556;55.656;12.590;2023-04-01T02:51:44;4.85;;;4.07;;
78298;SDS011;67556;55.656;12.590;2023-04-01T02:54:11;5.30;;;3.85;;
78298;SDS011;67556;55.656;12.590;2023-04-01T02:56:37;6.03;;;3.70;;
78298;SDS011;67556;55.656;12.590;2023-04-01T02:59:05;4.97;;;3.90;;
78298;SDS011;67556;55.656;12.590;2023-04-01T03:01:31;5.15;;;4.00;;
78298;SDS011;67556;55.656;12.590;2023-04-01T03:03:57;4.82;;;3.78;;
78298;SDS011;67556;55.656;12.590;2023-04-01T03:06:24;5.05;;;3.78;;
78298;SDS011;67556;55.656;12.590;2023-04-01T03:08:51;4.78;;;3.95;;
78298;SDS011;67556;55.656;12.590;2023-04-01T03:11:17;4.78;;;3.88;;
78298;SDS011;67556;55.656;12.590;2023-04-01T03:13:43;5.63;;;4.00;;
78298;SDS011;67556;55.656;12.590;2023-04-01T03:16:11;5.15;;;3.88;;
78298;SDS011;67556;55.656;12.590;2023-04-01T03:18:38;5.63;;;3.90;;
78298;SDS011;67556;55.656;12.590;2023-04-01T03:21:15;7.38;;;4.45;;
78298;SDS011;67556;55.656;12.590;2023-04-01T03:23:42;5.75;;;4.13;;
78298;SDS011;67556;55.656;12.590;2023-04-01T03:26:09;5.38;;;3.95;;
78298;SDS011;67556;55.656;12.590;2023-04-01T03:28:36;4.50;;;3.78;;
78298;SDS011;67556;55.656;12.590;2023-04-01T03:31:02;5.55;;;4.63;;
78298;SDS011;67556;55.656;12.590;2023-04-01T03:33:31;4.78;;;4.05;;
78298;SDS011;67556;55.656;12.590;2023-04-01T03:35:58;6.35;;;4.35;;
78298;SDS011;67556;55.656;12.590;2023-04-01T03:38:24;6.00;;;3.92;;
78298;SDS011;67556;55.656;12.590;2023-04-01T03:40:51;6.72;;;4.88;;
78298;SDS011;67556;55.656;12.590;2023-04-01T03:43:17;5.38;;;4.18;;
78298;SDS011;67556;55.656;12.590;2023-04-01T03:45:44;7.78;;;4.60;;
78298;SDS011;67556;55.656;12.590;2023-04-01T03:48:11;6.10;;;4.50;;
78298;SDS011;67556;55.656;12.590;2023-04-01T03:50:39;5.53;;;4.00;;
78298;SDS011;67556;55.656;12.590;2023-04-01T03:53:06;6.72;;;4.80;;
78298;SDS011;67556;55.656;12.590;2023-04-01T03:55:32;6.15;;;4.80;;
78298;SDS011;67556;55.656;12.590;2023-04-01T03:57:59;6.80;;;4.25;;
78298;SDS011;67556;55.656;12.590;2023-04-01T04:00:27;7.57;;;5.20;;
78298;SDS011;67556;55.656;12.590;2023-04-01T04:02:54;5.82;;;4.82;;
78298;SDS011;67556;55.656;12.590;2023-04-01T04:05:21;7.55;;;4.72;;
78298;SDS011;67556;55.656;12.590;2023-04-01T04:07:50;11.07;;;4.78;;
78298;SDS011;67556;55.656;12.590;2023-04-01T04:10:17;7.68;;;4.75;;
78298;SDS011;67556;55.656;12.590;2023-04-01T04:12:44;6.65;;;4.60;;
78298;SDS011;67556;55.656;12.590;2023-04-01T04:15:11;8.50;;;5.20;;
78298;SDS011;67556;55.656;12.590;2023-04-01T04:17:38;7.07;;;4.43;;
78298;SDS011;67556;55.656;12.590;2023-04-01T04:20:05;6.32;;;4.45;;
78298;SDS011;67556;55.656;12.590;2023-04-01T04:22:32;5.78;;;4.10;;
78298;SDS011;67556;55.656;12.590;2023-04-01T04:25:00;5.70;;;4.57;;
78298;SDS011;67556;55.656;12.590;2023-04-01T04:27:27;6.60;;;4.30;;
78298;SDS011;67556;55.656;12.590;2023-04-01T04:29:53;6.15;;;4.03;;
78298;SDS011;67556;55.656;12.590;2023-04-01T04:32:20;6.78;;;4.28;;
78298;SDS011;67556;55.656;12.590;2023-04-01T04:34:46;6.38;;;4.68;;
78298;SDS011;67556;55.656;12.590;2023-04-01T04:37:13;5.60;;;4.47;;
78298;SDS011;67556;55.656;12.590;2023-04-01T04:39:39;6.50;;;4.63;;
78298;SDS011;67556;55.656;12.590;2023-04-01T04:42:07;7.53;;;4.25;;
78298;SDS011;67556;55.656;12.590;2023-04-01T04:44:33;6.32;;;4.10;;
78298;SDS011;67556;55.656;12.590;2023-04-01T04:47:00;5.10;;;3.72;;
78298;SDS011;67556;55.656;12.590;2023-04-01T04:49:27;6.32;;;4.50;;
78298;SDS011;67556;55.656;12.590;2023-04-01T04:51:53;5.20;;;4.15;;
78298;SDS011;67556;55.656;12.590;2023-04-01T04:54:20;5.38;;;3.80;;
78298;SDS011;67556;55.656;12.590;2023-04-01T04:56:46;5.53;;;4.20;;
78298;SDS011;67556;55.656;12.590;2023-04-01T04:59:14;5.45;;;4.30;;
78298;SDS011;67556;55.656;12.590;2023-04-01T05:01:40;6.40;;;3.92;;
78298;SDS011;67556;55.656;12.590;2023-04-01T05:04:07;5.45;;;3.47;;
78298;SDS011;67556;55.656;12.590;2023-04-01T05:06:33;6.40;;;4.03;;
78298;SDS011;67556;55.656;12.590;2023-04-01T05:08:59;6.05;;;4.00;;
78298;SDS011;67556;55.656;12.590;2023-04-01T05:11:26;9.45;;;4.57;;
78298;SDS011;67556;55.656;12.590;2023-04-01T05:13:52;5.45;;;4.20;;
78298;SDS011;67556;55.656;12.590;2023-04-01T05:16:23;6.28;;;4.05;;
78298;SDS011;67556;55.656;12.590;2023-04-01T05:18:49;6.00;;;4.10;;
78298;SDS011;67556;55.656;12.590;2023-04-01T05:21:18;5.32;;;4.30;;
78298;SDS011;67556;55.656;12.590;2023-04-01T05:23:44;5.60;;;4.13;;
78298;SDS011;67556;55.656;12.590;2023-04-01T05:26:12;5.47;;;4.03;;
78298;SDS011;67556;55.656;12.590;2023-04-01T05:28:40;6.00;;;3.92;;
78298;SDS011;67556;55.656;12.590;2023-04-01T05:31:07;7.75;;;4.15;;
78298;SDS011;67556;55.656;12.590;2023-04-01T05:33:35;5.68;;;4.00;;
78298;SDS011;67556;55.656;12.590;2023-04-01T05:36:06;4.38;;;3.50;;
78298;SDS011;67556;55.656;12.590;2023-04-01T05:38:33;7.75;;;4.45;;
78298;SDS011;67556;55.656;12.590;2023-04-01T05:41:00;7.00;;;4.03;;
78298;SDS011;67556;55.656;12.590;2023-04-01T05:43:28;5.05;;;4.30;;
78298;SDS011;67556;55.656;12.590;2023-04-01T05:45:55;6.38;;;4.25;;
78298;SDS011;67556;55.656;12.590;2023-04-01T05:48:22;7.00;;;4.65;;
78298;SDS011;67556;55.656;12.590;2023-04-01T05:50:50;5.10;;;3.97;;
78298;SDS011;67556;55.656;12.590;2023-04-01T05:53:17;4.50;;;3.67;;
78298;SDS011;67556;55.656;12.590;2023-04-01T05:55:43;5.00;;;4.07;;
78298;SDS011;67556;55.656;12.590;2023-04-01T05:58:10;7.35;;;4.18;;
78298;SDS011;67556;55.656;12.590;2023-04-01T06:00:36;4.55;;;3.60;;
78298;SDS011;67556;55.656;12.590;2023-04-01T06:03:03;5.90;;;4.13;;
78298;SDS011;67556;55.656;12.590;2023-04-01T06:05:30;5.85;;;4.15;;
78298;SDS011;67556;55.656;12.590;2023-04-01T06:08:09;6.00;;;3.70;;
78298;SDS011;67556;55.656;12.590;2023-04-01T06:10:39;5.05;;;3.75;;
78298;SDS011;67556;55.656;12.590;2023-04-01T06:13:21;4.72;;;4.05;;
78298;SDS011;67556;55.656;12.590;2023-04-01T06:16:00;6.43;;;4.50;;
78298;SDS011;67556;55.656;12.590;2023-04-01T06:18:38;4.93;;;3.92;;
78298;SDS011;67556;55.656;12.590;2023-04-01T06:21:25;5.15;;;3.50;;
78298;SDS011;67556;55.656;12.590;2023-04-01T06:24:08;6.68;;;3.78;;
78298;SDS011;67556;55.656;12.590;2023-04-01T06:26:50;3.80;;;3.38;;
78298;SDS011;67556;55.656;12.590;2023-04-01T06:29:43;4.03;;;3.08;;
78298;SDS011;67556;55.656;12.590;2023-04-01T06:32:20;10.27;;;3.65;;
78298;SDS011;67556;55.656;12.590;2023-04-01T06:34:57;4.70;;;3.08;;
78298;SDS011;67556;55.656;12.590;2023-04-01T06:37:50;3.80;;;3.45;;
78298;SDS011;67556;55.656;12.590;2023-04-01T06:40:34;4.65;;;3.05;;
78298;SDS011;67556;55.656;12.590;2023-04-01T06:43:22;4.03;;;2.63;;
78298;SDS011;67556;55.656;12.590;2023-04-01T06:46:00;6.07;;;3.40;;
78298;SDS011;67556;55.656;12.590;2023-04-01T06:48:41;3.40;;;2.70;;
78298;SDS011;67556;55.656;12.590;2023-04-01T06:51:21;4.50;;;2.60;;
78298;SDS011;67556;55.656;12.590;2023-04-01T06:53:56;3.97;;;2.65;;
78298;SDS011;67556;55.656;12.590;2023-04-01T06:56:30;3.33;;;2.97;;
78298;SDS011;67556;55.656;12.590;2023-04-01T06:59:00;3.90;;;2.90;;
78298;SDS011;67556;55.656;12.590;2023-04-01T07:01:32;2.75;;;2.45;;
78298;SDS011;67556;55.656;12.590;2023-04-01T07:04:05;4.85;;;2.63;;
78298;SDS011;67556;55.656;12.590;2023-04-01T07:09:06;5.05;;;2.38;;
78298;SDS011;67556;55.656;12.590;2023-04-01T07:11:38;4.10;;;2.58;;
78298;SDS011;67556;55.656;12.590;2023-04-01T07:14:06;3.75;;;2.42;;
78298;SDS011;67556;55.656;12.590;2023-04-01T07:16:43;7.53;;;3.03;;
78298;SDS011;67556;55.656;12.590;2023-04-01T07:19:16;3.20;;;2.38;;
78298;SDS011;67556;55.656;12.590;2023-04-01T07:21:48;3.03;;;2.30;;
78298;SDS011;67556;55.656;12.590;2023-04-01T07:24:20;3.10;;;2.35;;
78298;SDS011;67556;55.656;12.590;2023-04-01T07:26:54;4.38;;;2.30;;
78298;SDS011;67556;55.656;12.590;2023-04-01T07:29:22;3.35;;;2.53;;
78298;SDS011;67556;55.656;12.590;2023-04-01T07:32:04;4.80;;;2.50;;
78298;SDS011;67556;55.656;12.590;2023-04-01T07:34:38;3.00;;;2.15;;
78298;SDS011;67556;55.656;12.590;2023-04-01T07:37:18;6.72;;;2.72;;
78298;SDS011;67556;55.656;12.590;2023-04-01T07:39:54;3.15;;;2.58;;
78298;SDS011;67556;55.656;12.590;2023-04-01T07:42:33;3.22;;;2.40;;
78298;SDS011;67556;55.656;12.590;2023-04-01T07:45:12;3.88;;;2.63;;
78298;SDS011;67556;55.656;12.590;2023-04-01T07:47:54;4.05;;;2.22;;
78298;SDS011;67556;55.656;12.590;2023-04-01T07:50:34;4.40;;;2.75;;
78298;SDS011;67556;55.656;12.590;2023-04-01T07:53:14;4.22;;;2.45;;
78298;SDS011;67556;55.656;12.590;2023-04-01T07:55:49;4.95;;;2.10;;
78298;SDS011;67556;55.656;12.590;2023-04-01T07:58:24;3.97;;;2.00;;
78298;SDS011;67556;55.656;12.590;2023-04-01T08:01:01;5.50;;;2.65;;
78298;SDS011;67556;55.656;12.590;2023-04-01T08:03:40;2.95;;;2.10;;
78298;SDS011;67556;55.656;12.590;2023-04-01T08:06:18;4.65;;;2.15;;
78298;SDS011;67556;55.656;12.590;2023-04-01T08:08:54;2.67;;;2.00;;
78298;SDS011;67556;55.656;12.590;2023-04-01T08:11:33;4.25;;;2.35;;
78298;SDS011;67556;55.656;12.590;2023-04-01T08:14:12;3.80;;;2.25;;
78298;SDS011;67556;55.656;12.590;2023-04-01T08:16:49;3.17;;;2.08;;
78298;SDS011;67556;55.656;12.590;2023-04-01T08:19:30;2.80;;;1.95;;
78298;SDS011;67556;55.656;12.590;2023-04-01T08:22:08;3.33;;;1.90;;
78298;SDS011;67556;55.656;12.590;2023-04-01T08:24:40;3.00;;;1.98;;
78298;SDS011;67556;55.656;12.590;2023-04-01T08:27:11;2.88;;;1.98;;
78298;SDS011;67556;55.656;12.590;2023-04-01T08:29:45;4.57;;;2.03;;
78298;SDS011;67556;55.656;12.590;2023-04-01T08:32:20;2.53;;;2.10;;
78298;SDS011;67556;55.656;12.590;2023-04-01T08:34:55;2.40;;;1.85;;
78298;SDS011;67556;55.656;12.590;2023-04-01T08:37:32;3.45;;;1.90;;
78298;SDS011;67556;55.656;12.590;2023-04-01T08:40:21;3.45;;;1.75;;
78298;SDS011;67556;55.656;12.590;2023-04-01T08:43:09;3.13;;;2.05;;
78298;SDS011;67556;55.656;12.590;2023-04-01T08:45:55;3.75;;;1.75;;
78298;SDS011;67556;55.656;12.590;2023-04-01T08:48:36;2.35;;;2.00;;
78298;SDS011;67556;55.656;12.590;2023-04-01T08:54:33;2.75;;;2.25;;
78298;SDS011;67556;55.656;12.590;2023-04-01T08:57:13;3.00;;;2.05;;
78298;SDS011;67556;55.656;12.590;2023-04-01T08:59:50;3.22;;;2.00;;
78298;SDS011;67556;55.656;12.590;2023-04-01T09:02:38;2.97;;;1.65;;
78298;SDS011;67556;55.656;12.590;2023-04-01T09:05:26;3.35;;;1.98;;
78298;SDS011;67556;55.656;12.590;2023-04-01T09:08:08;2.22;;;1.70;;
78298;SDS011;67556;55.656;12.590;2023-04-01T09:10:59;3.33;;;1.98;;
78298;SDS011;67556;55.656;12.590;2023-04-01T09:13:42;2.90;;;1.85;;
78298;SDS011;67556;55.656;12.590;2023-04-01T09:16:23;3.20;;;1.90;;
78298;SDS011;67556;55.656;12.590;2023-04-01T09:19:21;2.38;;;1.88;;
78298;SDS011;67556;55.656;12.590;2023-04-01T09:21:57;2.63;;;1.85;;
78298;SDS011;67556;55.656;12.590;2023-04-01T09:24:58;2.28;;;1.90;;
78298;SDS011;67556;55.656;12.590;2023-04-01T09:27:43;3.25;;;1.75;;
78298;SDS011;67556;55.656;12.590;2023-04-01T09:33:24;2.25;;;1.80;;
78298;SDS011;67556;55.656;12.590;2023-04-01T09:36:21;2.30;;;1.80;;
78298;SDS011;67556;55.656;12.590;2023-04-01T09:38:59;3.05;;;1.92;;
78298;SDS011;67556;55.656;12.590;2023-04-01T09:41:39;2.75;;;1.70;;
78298;SDS011;67556;55.656;12.590;2023-04-01T09:44:21;3.88;;;1.67;;
78298;SDS011;67556;55.656;12.590;2023-04-01T09:46:59;2.67;;;1.70;;
78298;SDS011;67556;55.656;12.590;2023-04-01T09:49:40;3.45;;;2.08;;
78298;SDS011;67556;55.656;12.590;2023-04-01T09:52:23;3.72;;;2.45;;
78298;SDS011;67556;55.656;12.590;2023-04-01T09:54:59;4.97;;;2.20;;
78298;SDS011;67556;55.656;12.590;2023-04-01T10:03:54;2.92;;;1.90;;
78298;SDS011;67556;55.656;12.590;2023-04-01T10:06:57;3.63;;;1.83;;
78298;SDS011;67556;55.656;12.590;2023-04-01T10:13:08;2.58;;;1.98;;
78298;SDS011;67556;55.656;12.590;2023-04-01T10:16:03;3.58;;;1.88;;
78298;SDS011;67556;55.656;12.590;2023-04-01T10:19:07;2.85;;;1.98;;
78298;SDS011;67556;55.656;12.590;2023-04-01T10:21:51;2.28;;;1.52;;
78298;SDS011;67556;55.656;12.590;2023-04-01T10:24:32;2.50;;;1.80;;
78298;SDS011;67556;55.656;12.590;2023-04-01T10:27:29;2.22;;;1.60;;
78298;SDS011;67556;55.656;12.590;2023-04-01T10:30:25;3.03;;;1.98;;
78298;SDS011;67556;55.656;12.590;2023-04-01T10:33:12;3.33;;;1.73;;
78298;SDS011;67556;55.656;12.590;2023-04-01T10:39:11;2.92;;;1.70;;
78298;SDS011;67556;55.656;12.590;2023-04-01T10:51:05;2.72;;;1.90;;
78298;SDS011;67556;55.656;12.590;2023-04-01T10:53:57;4.47;;;1.75;;
78298;SDS011;67556;55.656;12.590;2023-04-01T10:56:44;2.97;;;1.80;;
78298;SDS011;67556;55.656;12.590;2023-04-01T11:05:07;2.20;;;1.50;;
78298;SDS011;67556;55.656;12.590;2023-04-01T11:11:03;2.40;;;1.80;;
78298;SDS011;67556;55.656;12.590;2023-04-01T11:14:07;1.92;;;1.70;;
78298;SDS011;67556;55.656;12.590;2023-04-01T11:17:15;2.20;;;2.00;;
78298;SDS011;67556;55.656;12.590;2023-04-01T11:20:04;2.78;;;1.85;;
78298;SDS011;67556;55.656;12.590;2023-04-01T11:22:48;2.97;;;2.45;;
78298;SDS011;67556;55.656;12.590;2023-04-01T11:28:28;2.63;;;1.83;;
78298;SDS011;67556;55.656;12.590;2023-04-01T11:34:28;2.53;;;1.75;;
78298;SDS011;67556;55.656;12.590;2023-04-01T11:37:13;3.05;;;1.90;;
78298;SDS011;67556;55.656;12.590;2023-04-01T11:39:54;2.30;;;2.13;;
78298;SDS011;67556;55.656;12.590;2023-04-01T11:42:34;3.20;;;1.77;;
78298;SDS011;67556;55.656;12.590;2023-04-01T11:45:12;2.67;;;1.70;;
78298;SDS011;67556;55.656;12.590;2023-04-01T11:48:07;2.70;;;1.92;;
78298;SDS011;67556;55.656;12.590;2023-04-01T11:50:46;2.38;;;1.70;;
78298;SDS011;67556;55.656;12.590;2023-04-01T11:53:29;2.72;;;1.73;;
78298;SDS011;67556;55.656;12.590;2023-04-01T11:59:11;3.20;;;1.60;;
78298;SDS011;67556;55.656;12.590;2023-04-01T12:01:55;2.55;;;1.52;;
78298;SDS011;67556;55.656;12.590;2023-04-01T12:04:45;2.97;;;1.80;;
78298;SDS011;67556;55.656;12.590;2023-04-01T12:07:23;3.25;;;1.80;;
78298;SDS011;67556;55.656;12.590;2023-04-01T12:10:05;3.53;;;1.50;;
78298;SDS011;67556;55.656;12.590;2023-04-01T12:12:46;2.78;;;1.70;;
78298;SDS011;67556;55.656;12.590;2023-04-01T12:17:53;2.22;;;1.70;;
78298;SDS011;67556;55.656;12.590;2023-04-01T12:20:33;2.17;;;1.60;;
78298;SDS011;67556;55.656;12.590;2023-04-01T12:23:11;2.42;;;1.70;;
78298;SDS011;67556;55.656;12.590;2023-04-01T12:26:09;2.63;;;1.80;;
78298;SDS011;67556;55.656;12.590;2023-04-01T12:29:07;2.38;;;1.70;;
78298;SDS011;67556;55.656;12.590;2023-04-01T12:31:50;2.47;;;1.70;;
78298;SDS011;67556;55.656;12.590;2023-04-01T12:34:31;2.08;;;1.80;;
78298;SDS011;67556;55.656;12.590;2023-04-01T12:37:13;2.17;;;1.60;;
78298;SDS011;67556;55.656;12.590;2023-04-01T12:40:02;1.88;;;1.58;;
78298;SDS011;67556;55.656;12.590;2023-04-01T12:42:46;2.95;;;1.73;;
78298;SDS011;67556;55.656;12.590;2023-04-01T12:45:29;2.65;;;1.83;;
78298;SDS011;67556;55.656;12.590;2023-04-01T12:54:06;2.97;;;1.80;;
78298;SDS011;67556;55.656;12.590;2023-04-01T12:56:52;2.38;;;1.60;;
78298;SDS011;67556;55.656;12.590;2023-04-01T13:02:21;2.15;;;1.60;;
78298;SDS011;67556;55.656;12.590;2023-04-01T13:07:59;3.50;;;1.90;;
78298;SDS011;67556;55.656;12.590;2023-04-01T13:10:38;2.13;;;1.40;;
78298;SDS011;67556;55.656;12.590;2023-04-01T13:13:24;2.83;;;1.67;;
78298;SDS011;67556;55.656;12.590;2023-04-01T13:16:04;2.45;;;1.60;;
78298;SDS011;67556;55.656;12.590;2023-04-01T13:18:39;2.60;;;1.63;;
78298;SDS011;67556;55.656;12.590;2023-04-01T13:21:21;2.28;;;1.50;;
78298;SDS011;67556;55.656;12.590;2023-04-01T13:24:00;2.72;;;2.05;;
78298;SDS011;67556;55.656;12.590;2023-04-01T13:26:34;2.58;;;1.60;;
78298;SDS011;67556;55.656;12.590;2023-04-01T13:29:09;2.28;;;1.52;;
78298;SDS011;67556;55.656;12.590;2023-04-01T13:31:47;1.70;;;1.42;;
78298;SDS011;67556;55.656;12.590;2023-04-01T13:34:23;2.28;;;1.30;;
78298;SDS011;67556;55.656;12.590;2023-04-01T13:37:04;3.38;;;1.40;;
78298;SDS011;67556;55.656;12.590;2023-04-01T13:39:46;2.78;;;1.70;;
78298;SDS011;67556;55.656;12.590;2023-04-01T13:42:23;1.60;;;1.40;;
78298;SDS011;67556;55.656;12.590;2023-04-01T13:44:54;1.80;;;1.50;;
78298;SDS011;67556;55.656;12.590;2023-04-01T13:50:37;2.08;;;1.60;;
78298;SDS011;67556;55.656;12.590;2023-04-01T13:53:39;3.60;;;1.77;;
78298;SDS011;67556;55.656;12.590;2023-04-01T13:56:30;1.80;;;1.70;;
78298;SDS011;67556;55.656;12.590;2023-04-01T13:59:08;2.13;;;1.30;;
78298;SDS011;67556;55.656;12.590;2023-04-01T14:01:57;2.10;;;1.50;;
78298;SDS011;67556;55.656;12.590;2023-04-01T14:04:43;3.40;;;2.00;;
78298;SDS011;67556;55.656;12.590;2023-04-01T14:07:18;2.63;;;2.00;;
78298;SDS011;67556;55.656;12.590;2023-04-01T14:10:07;2.65;;;1.90;;
78298;SDS011;67556;55.656;12.590;2023-04-01T14:12:46;3.35;;;2.45;;
78298;SDS011;67556;55.656;12.590;2023-04-01T14:15:25;1.55;;;1.30;;
78298;SDS011;67556;55.656;12.590;2023-04-01T14:18:08;1.92;;;1.30;;
78298;SDS011;67556;55.656;12.590;2023-04-01T14:20:51;2.40;;;1.50;;
78298;SDS011;67556;55.656;12.590;2023-04-01T14:23:35;2.85;;;1.70;;
78298;SDS011;67556;55.656;12.590;2023-04-01T14:29:04;4.30;;;1.90;;
78298;SDS011;67556;55.656;12.590;2023-04-01T14:31:46;2.05;;;1.48;;
78298;SDS011;67556;55.656;12.590;2023-04-01T14:34:21;1.50;;;1.30;;
78298;SDS011;67556;55.656;12.590;2023-04-01T14:37:00;1.90;;;1.50;;
78298;SDS011;67556;55.656;12.590;2023-04-01T14:39:43;1.67;;;1.30;;
78298;SDS011;67556;55.656;12.590;2023-04-01T14:42:37;1.98;;;1.60;;
78298;SDS011;67556;55.656;12.590;2023-04-01T14:45:23;1.63;;;1.38;;
78298;SDS011;67556;55.656;12.590;2023-04-01T14:48:05;1.70;;;1.45;;
78298;SDS011;67556;55.656;12.590;2023-04-01T14:50:42;2.95;;;1.75;;
78298;SDS011;67556;55.656;12.590;2023-04-01T14:53:11;2.30;;;1.60;;
78298;SDS011;67556;55.656;12.590;2023-04-01T14:55:50;2.20;;;1.50;;
78298;SDS011;67556;55.656;12.590;2023-04-01T14:58:18;2.88;;;1.48;;
78298;SDS011;67556;55.656;12.590;2023-04-01T15:00:54;3.38;;;1.80;;
78298;SDS011;67556;55.656;12.590;2023-04-01T15:03:27;3.05;;;1.50;;
78298;SDS011;67556;55.656;12.590;2023-04-01T15:05:58;1.90;;;1.40;;
78298;SDS011;67556;55.656;12.590;2023-04-01T15:08:42;3.22;;;1.60;;
78298;SDS011;67556;55.656;12.590;2023-04-01T15:11:26;3.70;;;1.80;;
78298;SDS011;67556;55.656;12.590;2023-04-01T15:14:10;2.58;;;1.67;;
78298;SDS011;67556;55.656;12.590;2023-04-01T15:16:48;2.97;;;2.10;;
78298;SDS011;67556;55.656;12.590;2023-04-01T15:19:25;3.35;;;1.70;;
78298;SDS011;67556;55.656;12.590;2023-04-01T15:22:20;2.45;;;1.52;;
78298;SDS011;67556;55.656;12.590;2023-04-01T15:25:04;2.60;;;1.67;;
78298;SDS011;67556;55.656;12.590;2023-04-01T15:27:45;3.17;;;1.70;;
78298;SDS011;67556;55.656;12.590;2023-04-01T15:30:23;2.83;;;1.73;;
78298;SDS011;67556;55.656;12.590;2023-04-01T15:33:01;3.13;;;1.58;;
78298;SDS011;67556;55.656;12.590;2023-04-01T15:35:42;3.13;;;1.52;;
78298;SDS011;67556;55.656;12.590;2023-04-01T15:38:16;2.70;;;1.73;;
78298;SDS011;67556;55.656;12.590;2023-04-01T15:40:55;1.85;;;1.45;;
78298;SDS011;67556;55.656;12.590;2023-04-01T15:43:31;2.50;;;1.70;;
78298;SDS011;67556;55.656;12.590;2023-04-01T15:46:14;2.72;;;1.52;;
78298;SDS011;67556;55.656;12.590;2023-04-01T15:49:14;1.92;;;1.40;;
78298;SDS011;67556;55.656;12.590;2023-04-01T15:51:58;3.38;;;1.80;;
78298;SDS011;67556;55.656;12.590;2023-04-01T15:54:47;2.88;;;1.63;;
78298;SDS011;67556;55.656;12.590;2023-04-01T15:57:28;2.45;;;1.67;;
78298;SDS011;67556;55.656;12.590;2023-04-01T16:00:09;4.07;;;2.10;;
78298;SDS011;67556;55.656;12.590;2023-04-01T16:02:55;2.70;;;1.63;;
78298;SDS011;67556;55.656;12.590;2023-04-01T16:05:44;2.15;;;1.50;;
78298;SDS011;67556;55.656;12.590;2023-04-01T16:08:43;2.50;;;1.58;;
78298;SDS011;67556;55.656;12.590;2023-04-01T16:11:23;2.80;;;1.33;;
78298;SDS011;67556;55.656;12.590;2023-04-01T16:13:59;3.15;;;1.67;;
78298;SDS011;67556;55.656;12.590;2023-04-01T16:17:03;3.10;;;1.73;;
78298;SDS011;67556;55.656;12.590;2023-04-01T16:22:19;2.80;;;1.60;;
78298;SDS011;67556;55.656;12.590;2023-04-01T16:25:01;3.53;;;1.95;;
78298;SDS011;67556;55.656;12.590;2023-04-01T16:27:44;2.75;;;1.50;;
78298;SDS011;67556;55.656;12.590;2023-04-01T16:30:23;3.85;;;1.60;;
78298;SDS011;67556;55.656;12.590;2023-04-01T16:33:03;3.58;;;1.67;;
78298;SDS011;67556;55.656;12.590;2023-04-01T16:35:40;1.90;;;1.45;;
78298;SDS011;67556;55.656;12.590;2023-04-01T16:38:15;2.45;;;1.42;;